Date,TemperatureHighF,TemperatureAvgF,TemperatureLowF,DewpointHighF,DewpointAvgF,DewpointLowF,HumidityHigh,HumidityAvg,HumidityLow,PressureMaxIn,PressureMinIn,WindSpeedMaxMPH,WindSpeedAvgMPH,GustSpeedMaxMPH,PrecipitationSumIn
2012-12-1,38.8,35.2,31.9,37.0,31.2,25.0,93,85,73,30.61,30.49,4,0,6,0.00
2012-12-2,56.8,46.2,37.7,50.0,43.8,37.0,98,91,76,30.48,30.14,5,1,12,0.01
2012-12-3,61.4,49.7,39.5,51.0,44.7,38.0,98,84,56,30.33,30.12,8,1,13,0.01
2012-12-4,56.3,47.7,36.7,56.0,46.9,36.0,98,97,94,30.36,30.06,5,1,13,0.03
2012-12-5,55.7,47.7,32.3,55.0,39.2,22.0,97,74,52,30.20,29.94,8,2,15,0.06
2012-12-6,44.4,31.9,25.2,25.0,20.4,17.0,85,64,40,30.37,30.20,5,0,8,0.00
2012-12-7,47.1,39.0,26.0,44.0,35.9,23.0,98,89,71,30.34,30.09,4,0,6,0.10
2012-12-8,51.8,47.4,44.4,51.0,46.8,44.0,99,97,95,30.08,29.89,3,0,8,0.02
2012-12-9,51.5,44.5,40.1,47.0,41.7,39.0,98,90,72,30.30,30.03,5,0,10,0.12
2012-12-10,58.5,53.3,43.3,58.0,53.1,43.0,99,99,98,30.11,29.58,9,2,15,0.31
2012-12-11,55.4,43.1,33.1,55.0,37.2,27.0,99,80,57,30.22,29.61,5,1,11,0.01
2012-12-12,47.2,35.3,29.0,32.0,26.3,24.0,83,71,47,30.48,30.23,3,0,5,0.01
2012-12-13,47.6,35.0,28.5,35.0,26.8,25.0,88,74,44,30.51,30.36,2,0,6,0.00
2012-12-14,49.2,36.6,28.1,33.0,27.9,25.0,91,72,46,30.35,30.14,8,1,15,0.00
2012-12-15,50.5,36.6,30.0,36.0,29.7,27.0,91,78,47,30.35,30.24,5,0,6,0.00
2012-12-16,38.6,36.3,33.1,38.0,33.3,30.0,97,89,79,30.32,30.02,7,1,16,0.14
2012-12-17,42.9,40.8,37.6,42.0,40.4,37.0,98,98,97,30.02,29.75,4,1,10,0.02
2012-12-18,48.1,44.5,40.5,48.0,44.0,40.0,99,98,93,29.75,29.49,8,1,10,0.01
2012-12-19,49.2,41.9,34.6,39.0,34.1,29.0,89,74,57,30.09,29.55,12,3,15,0.01
2012-12-20,46.0,37.6,29.6,36.0,31.6,27.0,92,80,59,30.25,30.00,3,0,9,0.01
2012-12-21,54.8,44.2,37.2,54.0,41.5,30.0,98,90,76,30.02,29.15,22,5,27,0.60
2012-12-22,38.6,34.1,32.9,34.0,21.5,-99.9,93,69,55,29.75,29.32,14,-42,22,0.60
2012-12-23,41.8,35.8,32.0,27.0,24.3,21.0,76,63,53,29.95,29.77,11,3,16,0.00
2012-12-24,42.1,33.1,27.2,29.0,23.6,21.0,91,69,51,30.12,29.95,4,0,7,0.00
2012-12-25,38.6,32.2,26.5,36.0,30.6,23.0,97,93,85,30.27,29.97,3,0,5,0.10
2012-12-26,35.2,30.1,21.6,34.0,25.2,17.0,96,82,69,30.33,29.74,7,1,13,0.10
2012-12-27,43.8,37.0,31.2,43.0,35.8,27.0,98,95,85,29.73,29.29,8,3,19,0.03
2012-12-28,40.4,31.1,25.6,29.0,24.4,21.0,90,77,60,30.09,29.74,12,2,14,0.03
2012-12-29,35.7,29.3,23.9,31.0,27.3,22.0,97,92,83,30.07,29.44,2,0,4,0.00
2012-12-30,32.3,27.3,20.8,30.0,20.6,12.0,97,77,57,30.11,29.50,13,3,19,0.03
2012-12-31,37.3,28.7,15.4,26.0,20.3,10.0,80,71,58,30.15,29.87,11,3,13,0.06